Terminal Aerodrome Forecast
Issued by NWS

Home | Current Version | Previous Version | Text Only | Print | Product List | Glossary On
Versions: 1 2 3 4 5 6 7 8 9 10 11 12 13 14 15 16 17 18 19
000
FTUS42 KFFC 260528
TAFPDK
TAF
KPDK 260528Z 2606/2706 24006KT P6SM SCT025 BKN060
      TEMPO 2606/2609 -RA BKN025
     FM260900 28009KT P6SM -RA OVC015
     FM261500 31012G22KT P6SM BKN025
     FM261800 31014G24KT P6SM BKN050
     FM270000 31009KT P6SM SCT060 BKN120=

USA.gov is the U.S. government's official web portal to all federal, state and local government web resources and services.